»·PEaware :: N209K KBFI-KBVS

N209K :: KBFI-KBVS

FLIGHT INFORMATION

Flight Status: Arrived
Operator: Privately registered:
United States
More flights under this callsign
Pilot: Anonymous 12234 (12234)
Aircraft: BEECH AIRCRAFT BARON
(BE58)
More flights by this aircraft type
Origin: KBFI Boeing Field/King Co Intl
United States
Destination: KBVS Skagit Regl
United States
More flights between these airports :: More routes between these airports
Route: +KENT8 ZIGED PAE
File this flight plan on PilotEdge
Remarks:
Altitude:
(Current/Filed)
4,000ft
Speed:
(Current/Filed)
190kts
Departed: 09-Jan-18 10:12 PM
Arrived: 09-Jan-18 10:46 PM
Distance/Time
Traveled:
57nm/0:34
Distance/Time
To Go:
Arrived

Flight Plot

Page will automatically refresh every two minutes.

Flight plan parsing failed; only flown route is shown


Map Options




Map Legend


Flown Route
Filed Route
Departure Airport
Arrival Airport
Navaid (VOR, NDB)
Fix

Horizontal Profiles

Position Reports

Time Latitude Longitude Heading Altitude Ground
Speed
09-Jan-18 21:59 47.537020 -122.305028 154 23ft 0kts
09-Jan-18 22:00 47.537020 -122.305028 154 23ft 0kts
09-Jan-18 22:01 47.537020 -122.305028 154 23ft 0kts
09-Jan-18 22:02 47.537020 -122.305028 154 23ft 0kts
09-Jan-18 22:03 47.537020 -122.305028 154 23ft 0kts
09-Jan-18 22:04 47.537020 -122.305028 154 23ft 0kts
09-Jan-18 22:05 47.537020 -122.305028 154 23ft 0kts
09-Jan-18 22:06 47.537020 -122.305028 154 23ft 0kts
09-Jan-18 22:07 47.537020 -122.305028 154 23ft 0kts
09-Jan-18 22:08 47.537020 -122.305028 154 23ft 0kts
09-Jan-18 22:09 47.537020 -122.305028 154 23ft 0kts
09-Jan-18 22:10 47.537020 -122.305028 154 23ft 0kts
09-Jan-18 22:11 47.537020 -122.305028 154 23ft 0kts
09-Jan-18 22:12 47.536914 -122.305104 247 23ft 0kts
09-Jan-18 22:13 47.536913 -122.305105 247 23ft 0kts
09-Jan-18 22:14 47.537818 -122.306387 330 23ft 8kts
09-Jan-18 22:15 47.539450 -122.307748 333 23ft 12kts
09-Jan-18 22:16 47.540948 -122.309929 243 23ft 0kts
09-Jan-18 22:17 47.540802 -122.310326 240 23ft 7kts
09-Jan-18 22:18 47.529688 -122.302124 152 353ft 112kts
09-Jan-18 22:19 47.497449 -122.274876 151 1378ft 139kts
09-Jan-18 22:20 47.465361 -122.247477 151 2006ft 147kts
09-Jan-18 22:21 47.428599 -122.216202 151 2183ft 154kts
09-Jan-18 22:22 47.396986 -122.187455 128 3001ft 138kts
09-Jan-18 22:23 47.417508 -122.160597 347 3893ft 136kts
09-Jan-18 22:24 47.462426 -122.172786 350 4015ft 194kts
09-Jan-18 22:25 47.513693 -122.184747 350 4010ft 202kts
09-Jan-18 22:26 47.568297 -122.197202 350 4010ft 204kts
09-Jan-18 22:27 47.620611 -122.209121 350 4011ft 204kts
09-Jan-18 22:28 47.675588 -122.221671 350 4011ft 204kts
09-Jan-18 22:29 47.729753 -122.234150 351 4009ft 204kts
09-Jan-18 22:30 47.784161 -122.246644 352 3997ft 205kts
09-Jan-18 22:31 47.838086 -122.259096 353 3991ft 200kts
09-Jan-18 22:32 47.887283 -122.270344 353 3987ft 181kts
09-Jan-18 22:33 47.934852 -122.281718 352 3990ft 175kts
09-Jan-18 22:34 47.980593 -122.293531 352 3990ft 174kts
09-Jan-18 22:35 48.028090 -122.305805 352 3987ft 176kts
09-Jan-18 22:36 48.074754 -122.317902 350 3997ft 185kts
09-Jan-18 22:37 48.119543 -122.329562 350 3996ft 188kts
09-Jan-18 22:38 48.169721 -122.342664 349 4017ft 188kts
09-Jan-18 22:39 48.218804 -122.355606 351 4013ft 188kts
09-Jan-18 22:40 48.267223 -122.368169 353 4007ft 182kts
09-Jan-18 22:41 48.281227 -122.327752 103 4582ft 156kts
09-Jan-18 22:42 48.271198 -122.272312 104 5017ft 165kts
09-Jan-18 22:43 48.262874 -122.213588 104 5015ft 177kts
09-Jan-18 22:44 48.279155 -122.171235 357 5019ft 187kts
09-Jan-18 22:45 48.319517 -122.164132 341 5005ft 189kts
09-Jan-18 22:46 48.357598 -122.205438 320 5012ft 188kts
09-Jan-18 22:47 48.390817 -122.253983 308 5003ft 184kts
09-Jan-18 22:48 48.413024 -122.299325 308 4307ft 121kts
09-Jan-18 22:49 48.431847 -122.337385 307 3076ft 124kts
09-Jan-18 22:50 48.451815 -122.378906 307 1468ft 117kts
09-Jan-18 22:51 48.468692 -122.412320 308 178ft 90kts
09-Jan-18 22:52 48.474930 -122.421773 68 147ft 10kts
09-Jan-18 22:53 48.473993 -122.418142 134 147ft 12kts
09-Jan-18 22:54 48.473611 -122.417192 40 147ft 0kts
09-Jan-18 22:55 48.473611 -122.417192 40 147ft 0kts
09-Jan-18 22:56 48.473611 -122.417192 40 147ft 0kts
09-Jan-18 22:57 48.473611 -122.417192 40 147ft 0kts
09-Jan-18 22:58 48.473611 -122.417192 40 147ft 0kts
09-Jan-18 22:59 48.473611 -122.417192 40 147ft 0kts
09-Jan-18 23:00 48.473611 -122.417192 40 147ft 0kts
09-Jan-18 23:01 48.473611 -122.417192 40 147ft 0kts
09-Jan-18 23:02 48.473611 -122.417192 40 147ft 0kts
09-Jan-18 23:03 48.473611 -122.417192 40 147ft 0kts
09-Jan-18 23:04 48.473611 -122.417192 40 147ft 0kts
09-Jan-18 23:05 48.473611 -122.417192 40 147ft 0kts
09-Jan-18 23:06 48.473611 -122.417192 40 147ft 0kts
09-Jan-18 23:07 48.473611 -122.417192 40 147ft 0kts

Navigation Log

Ident Type
Flight plan parsing failed, navigation log unavailable